Time;durP1;ratioP1;P1;durP2;ratioP2;P2;SDS_P1;SDS_P2;PMS_P1;PMS_P2;Temp;Humidity;BMP_temperature;BMP_pressure;BME280_temperature;BME280_humidity;BME280_pressure;Samples;Min_cycle;Max_cycle;Signal;HPM_P1;HPM_P2
2022/11/11 00:01:32;;;;;;;18.83;7.95;;;10.40;99.90;;;;;;5134180;27;20043;-74
2022/11/11 00:03:58;;;;;;;18.58;6.90;;;10.50;99.90;;;;;;5116339;27;20047;-75
2022/11/11 00:06:23;;;;;;;20.60;7.60;;;10.50;99.90;;;;;;5098858;27;20043;-75
2022/11/11 00:08:49;;;;;;;20.85;8.75;;;10.50;99.90;;;;;;5115944;27;20216;-73
2022/11/11 00:11:16;;;;;;;18.60;7.50;;;10.60;99.90;;;;;;5133929;27;20047;-76
2022/11/11 00:13:42;;;;;;;21.48;8.48;;;10.50;99.90;;;;;;5133748;27;20065;-74
2022/11/11 00:16:16;;;;;;;22.92;7.75;;;10.60;99.90;;;;;;5134713;27;20094;-75
2022/11/11 00:27:10;;;;;;;21.85;7.43;;;10.50;99.90;;;;;;5133779;27;20166;-76
2022/11/11 00:29:37;;;;;;;23.50;7.70;;;10.60;99.90;;;;;;5115777;28;20589;-74
2022/11/11 00:32:22;;;;;;;19.42;8.13;;;10.60;99.90;;;;;;5133942;28;20058;-76
2022/11/11 00:37:36;;;;;;;23.73;8.05;;;10.60;99.90;;;;;;5133982;28;20059;-75
2022/11/11 00:40:01;;;;;;;25.70;7.85;;;10.60;99.90;;;;;;5133723;28;20069;-74
2022/11/11 00:42:27;;;;;;;17.65;6.60;;;10.60;99.90;;;;;;5133626;28;20050;-75
2022/11/11 00:44:53;;;;;;;21.23;8.25;;;10.70;99.90;;;;;;5133980;28;20062;-74
2022/11/11 00:52:50;;;;;;;22.33;8.20;;;10.50;99.90;;;;;;5118089;28;20123;-76
2022/11/11 00:55:15;;;;;;;21.05;8.20;;;10.50;99.90;;;;;;5115502;28;20043;-76
2022/11/11 00:57:41;;;;;;;20.88;7.93;;;10.50;99.90;;;;;;5115338;28;20047;-80
2022/11/11 01:00:07;;;;;;;24.05;8.18;;;10.30;99.90;;;;;;5133404;28;20054;-75
2022/11/11 01:02:33;;;;;;;19.48;8.25;;;10.30;99.90;;;;;;5115875;27;20047;-75
2022/11/11 01:04:58;;;;;;;21.48;8.43;;;10.20;99.90;;;;;;5119746;27;20130;-74
2022/11/11 01:07:24;;;;;;;22.15;9.30;;;10.10;99.90;;;;;;5119066;27;20079;-75
2022/11/11 01:09:50;;;;;;;25.15;8.85;;;10.00;99.90;;;;;;5118657;27;20043;-73
2022/11/11 01:12:16;;;;;;;23.00;8.65;;;9.90;99.90;;;;;;5137107;27;20079;-76
2022/11/11 01:14:42;;;;;;;22.77;9.18;;;9.80;99.90;;;;;;5137265;27;20094;-74
2022/11/11 01:17:08;;;;;;;19.35;8.70;;;9.80;99.90;;;;;;5101728;27;20039;-75
2022/11/11 01:19:34;;;;;;;23.00;9.85;;;9.70;99.90;;;;;;5118964;27;20389;-75
2022/11/11 01:22:00;;;;;;;23.55;9.60;;;9.70;99.90;;;;;;5136985;27;20146;-75
2022/11/11 01:24:26;;;;;;;23.95;10.35;;;9.60;99.90;;;;;;5136996;27;20108;-74
2022/11/11 01:26:52;;;;;;;23.50;10.82;;;9.50;99.90;;;;;;5137724;27;20126;-76
2022/11/11 01:29:18;;;;;;;21.40;9.07;;;9.50;99.90;;;;;;5118637;27;20507;-73
2022/11/11 01:31:43;;;;;;;24.35;9.75;;;9.40;99.90;;;;;;5137461;27;20043;-75
2022/11/11 01:34:09;;;;;;;26.42;10.10;;;9.40;99.90;;;;;;5136851;27;20065;-77
2022/11/11 01:36:35;;;;;;;25.67;10.00;;;9.40;99.90;;;;;;5118208;27;20074;-75
2022/11/11 01:39:00;;;;;;;19.45;9.70;;;9.30;99.90;;;;;;5136706;27;20043;-74
2022/11/11 01:41:33;;;;;;;27.63;10.23;;;9.30;99.90;;;;;;5118462;27;20046;-75
2022/11/11 01:44:10;;;;;;;29.00;10.85;;;9.30;99.90;;;;;;5119278;27;20043;-75
2022/11/11 01:46:54;;;;;;;27.02;11.32;;;9.30;99.90;;;;;;5118518;27;20051;-75
2022/11/11 01:49:49;;;;;;;25.98;10.73;;;9.30;99.90;;;;;;5136613;27;20099;-75
2022/11/11 01:52:25;;;;;;;28.67;12.23;;;9.30;99.90;;;;;;5136462;27;20085;-75
2022/11/11 01:54:54;;;;;;;29.08;11.50;;;9.20;99.90;;;;;;5118203;27;20142;-74
2022/11/11 01:57:37;;;;;;;30.38;13.63;;;9.20;99.90;;;;;;5136719;27;20046;-74
2022/11/11 02:00:15;;;;;;;32.53;12.40;;;9.20;99.90;;;;;;5136135;27;20130;-75
2022/11/11 02:02:41;;;;;;;26.88;11.90;;;9.20;99.90;;;;;;5117976;27;20054;-75
2022/11/11 02:07:57;;;;;;;35.03;13.43;;;9.20;99.90;;;;;;5136568;27;20047;-74
2022/11/11 02:10:25;;;;;;;34.33;13.20;;;9.20;99.90;;;;;;5118125;27;20415;-74
2022/11/11 02:15:36;;;;;;;35.17;14.10;;;9.20;99.90;;;;;;5136202;27;20047;-74
2022/11/11 02:18:03;;;;;;;41.88;14.13;;;9.20;99.90;;;;;;5117842;27;20163;-75
2022/11/11 02:20:34;;;;;;;35.67;13.95;;;9.20;99.90;;;;;;5136310;27;20119;-74
2022/11/11 02:23:13;;;;;;;37.03;13.88;;;9.10;99.90;;;;;;5118422;27;20047;-74
2022/11/11 02:25:43;;;;;;;35.22;14.35;;;9.10;99.90;;;;;;5136835;27;20475;-75
2022/11/11 02:28:12;;;;;;;39.40;14.10;;;9.20;99.90;;;;;;5118942;27;20131;-73
2022/11/11 02:30:38;;;;;;;38.83;15.32;;;9.10;99.90;;;;;;5117994;27;20148;-75
2022/11/11 02:33:04;;;;;;;33.83;14.33;;;9.10;99.90;;;;;;5118437;27;20039;-74
2022/11/11 02:35:36;;;;;;;35.17;15.57;;;9.10;99.90;;;;;;5118161;27;20047;-75
2022/11/11 02:38:07;;;;;;;37.85;14.63;;;9.20;99.90;;;;;;5136654;27;20109;-74
2022/11/11 02:40:37;;;;;;;40.08;16.05;;;9.10;99.90;;;;;;5136713;27;20049;-74
2022/11/11 02:43:04;;;;;;;42.22;15.20;;;9.10;99.90;;;;;;5102190;27;20111;-75
2022/11/11 02:45:29;;;;;;;37.88;15.85;;;9.10;99.90;;;;;;5136319;27;20051;-74
2022/11/11 02:47:55;;;;;;;36.17;15.70;;;9.10;99.90;;;;;;5084903;27;20051;-74
2022/11/11 02:50:21;;;;;;;39.92;15.93;;;9.10;99.90;;;;;;5118178;27;20130;-74
2022/11/11 02:52:47;;;;;;;43.05;16.23;;;9.20;99.90;;;;;;5136516;27;20086;-74
2022/11/11 02:55:12;;;;;;;45.10;17.45;;;9.10;99.90;;;;;;5136322;27;20070;-73
2022/11/11 02:57:38;;;;;;;41.13;17.55;;;9.10;99.90;;;;;;5118069;27;20167;-74
2022/11/11 03:00:05;;;;;;;42.92;19.92;;;9.00;99.90;;;;;;5137097;27;20143;-74
2022/11/11 03:02:31;;;;;;;37.10;17.73;;;9.10;99.90;;;;;;5136565;27;20153;-76
2022/11/11 03:04:57;;;;;;;43.05;17.15;;;9.10;99.90;;;;;;5138133;27;20111;-75
2022/11/11 03:07:24;;;;;;;38.25;17.35;;;9.10;99.90;;;;;;5144773;27;20043;-74
2022/11/11 03:09:50;;;;;;;42.85;17.58;;;9.10;99.90;;;;;;5125503;27;20047;-74
2022/11/11 03:12:16;;;;;;;45.15;18.10;;;9.10;99.90;;;;;;5140629;27;20043;-76
2022/11/11 03:14:42;;;;;;;43.40;17.05;;;9.10;99.90;;;;;;5105666;27;20065;-75
2022/11/11 03:21:03;;;;;;;42.50;18.50;;;9.20;99.90;;;;;;5143279;27;20130;-74
2022/11/11 03:22:38;;;;;;;47.55;18.38;;;9.20;99.90;;;;;;5143174;27;20053;-74
2022/11/11 03:27:49;;;;;;;47.67;17.73;;;9.20;99.90;;;;;;5140804;27;20103;-73
2022/11/11 03:30:14;;;;;;;56.92;19.38;;;9.10;99.90;;;;;;5139075;27;20167;-75
2022/11/11 03:32:42;;;;;;;43.92;18.00;;;9.20;99.90;;;;;;5120904;27;20043;-76
2022/11/11 03:35:07;;;;;;;;;;;9.20;99.90;;;;;;5121792;27;20038;-77
2022/11/11 03:40:18;;;;;;;45.95;19.95;;;9.10;99.90;;;;;;5125022;27;20161;-74
2022/11/11 03:42:43;;;;;;;41.45;18.73;;;9.10;99.90;;;;;;5139869;27;20051;-75
2022/11/11 03:45:09;;;;;;;52.10;21.60;;;9.10;99.90;;;;;;5141032;27;20047;-74
2022/11/11 03:47:35;;;;;;;43.35;18.23;;;9.20;99.90;;;;;;5142930;27;20043;-72
2022/11/11 03:50:00;;;;;;;46.78;18.92;;;9.10;99.90;;;;;;5107478;27;20043;-75
2022/11/11 03:52:26;;;;;;;47.80;18.88;;;9.10;99.90;;;;;;5106960;27;20051;-78
2022/11/11 03:54:52;;;;;;;43.65;19.45;;;9.10;99.90;;;;;;5142181;27;20119;-75
2022/11/11 03:57:30;;;;;;;48.13;19.67;;;9.10;99.90;;;;;;5123525;27;20481;-75
2022/11/11 03:59:55;;;;;;;48.58;18.63;;;9.10;99.90;;;;;;5142250;27;20051;-74
2022/11/11 04:10:35;;;;;;;48.78;19.98;;;9.40;99.90;;;;;;5138751;27;20051;-73
2022/11/11 04:23:59;;;;;;;44.10;20.23;;;9.60;99.90;;;;;;5136864;27;20047;-74
2022/11/11 04:26:25;;;;;;;55.22;20.10;;;9.70;99.90;;;;;;5136180;27;20039;-74
2022/11/11 04:31:35;;;;;;;45.35;18.42;;;9.80;99.90;;;;;;5136819;28;20050;-74
2022/11/11 04:34:01;;;;;;;40.92;17.88;;;9.80;99.90;;;;;;5117566;28;20036;-74
2022/11/11 04:36:27;;;;;;;41.58;19.10;;;9.90;99.90;;;;;;5136572;27;20039;-75
2022/11/11 04:41:37;;;;;;;41.13;17.02;;;9.90;99.90;;;;;;5142136;27;20054;-74
2022/11/11 04:46:47;;;;;;;46.67;17.20;;;10.00;99.90;;;;;;5127383;27;20116;-74
2022/11/11 04:49:13;;;;;;;41.90;17.60;;;10.00;99.90;;;;;;5142201;27;20051;-75
2022/11/11 04:54:22;;;;;;;36.92;16.83;;;10.00;99.90;;;;;;5126070;27;20047;-74
2022/11/11 04:56:49;;;;;;;37.50;17.02;;;10.00;99.90;;;;;;5141563;27;20043;-74
2022/11/11 04:59:19;;;;;;;40.40;17.98;;;10.00;99.90;;;;;;5123697;27;20043;-74
2022/11/11 05:04:30;;;;;;;40.25;17.73;;;10.00;99.90;;;;;;5141022;27;20062;-75
2022/11/11 05:09:39;;;;;;;39.58;17.92;;;10.00;99.90;;;;;;5123219;27;20069;-74
2022/11/11 05:12:05;;;;;;;42.03;16.55;;;9.90;99.90;;;;;;5122886;27;20046;-75
2022/11/11 05:22:44;;;;;;;38.75;17.95;;;9.70;99.90;;;;;;5122787;27;20043;-74
2022/11/11 05:25:29;;;;;;;39.92;17.27;;;9.80;99.90;;;;;;5122411;27;20107;-75
2022/11/11 05:27:58;;;;;;;38.97;16.92;;;9.70;99.90;;;;;;5122954;27;20063;-74
2022/11/11 05:30:25;;;;;;;42.30;16.67;;;9.80;99.90;;;;;;5123425;27;20475;-74
2022/11/11 05:32:53;;;;;;;40.47;17.52;;;9.80;99.90;;;;;;5140709;27;20077;-74
2022/11/11 05:35:19;;;;;;;32.33;12.98;;;9.80;99.90;;;;;;5122121;27;20367;-76
2022/11/11 05:38:19;;;;;;;41.75;16.70;;;9.90;99.90;;;;;;5140352;27;20039;-76
2022/11/11 05:40:33;;;;;;;42.17;16.05;;;9.90;99.90;;;;;;5121915;27;20469;-75
2022/11/11 05:42:59;;;;;;;38.75;16.80;;;9.90;99.90;;;;;;5139674;27;20129;-73
2022/11/11 05:45:25;;;;;;;41.05;14.85;;;10.00;99.90;;;;;;5139207;27;20055;-75
2022/11/11 05:47:51;;;;;;;35.33;16.92;;;10.00;99.90;;;;;;5119977;27;20122;-75
2022/11/11 05:50:16;;;;;;;40.38;16.05;;;10.00;99.90;;;;;;5120684;27;20095;-73
2022/11/11 05:52:48;;;;;;;38.70;16.17;;;10.00;99.90;;;;;;5119711;27;20051;-76
2022/11/11 05:55:13;;;;;;;38.88;16.40;;;10.10;99.90;;;;;;5120003;27;20068;-75
2022/11/11 05:57:39;;;;;;;40.38;15.18;;;10.10;99.90;;;;;;5137918;27;20132;-73
2022/11/11 06:00:05;;;;;;;39.55;16.05;;;10.10;99.90;;;;;;5119407;27;20051;-75
2022/11/11 06:02:31;;;;;;;37.85;16.20;;;10.10;99.90;;;;;;5119896;27;20095;-75
2022/11/11 06:04:57;;;;;;;38.05;17.02;;;10.10;99.90;;;;;;5137719;27;20047;-75
2022/11/11 06:07:22;;;;;;;38.40;16.65;;;10.10;99.90;;;;;;5101551;27;20397;-75
2022/11/11 06:09:48;;;;;;;37.72;15.02;;;10.10;99.90;;;;;;5137151;27;20043;-73
2022/11/11 06:12:14;;;;;;;41.25;16.88;;;10.10;99.90;;;;;;5136970;27;20085;-74
2022/11/11 06:14:40;;;;;;;38.08;16.73;;;10.00;99.90;;;;;;5136623;27;20451;-74
2022/11/11 06:17:06;;;;;;;37.40;15.13;;;10.00;99.90;;;;;;5136968;27;20428;-76
2022/11/11 06:19:31;;;;;;;35.03;15.32;;;10.00;99.90;;;;;;5101464;27;20134;-74
2022/11/11 06:21:57;;;;;;;35.28;14.15;;;10.00;99.90;;;;;;5117979;27;20051;-75
2022/11/11 06:24:24;;;;;;;43.05;16.30;;;10.00;99.90;;;;;;5136124;27;20126;-74
2022/11/11 06:26:49;;;;;;;34.20;15.55;;;10.10;99.90;;;;;;5136320;27;20565;-74
2022/11/11 06:29:15;;;;;;;34.50;14.73;;;10.10;99.90;;;;;;5118375;27;20086;-75
2022/11/11 06:31:41;;;;;;;36.13;15.25;;;10.10;99.90;;;;;;5136097;27;20045;-77
2022/11/11 06:34:16;;;;;;;35.10;14.35;;;10.10;99.90;;;;;;5136176;27;20126;-75
2022/11/11 06:36:48;;;;;;;33.72;14.23;;;10.10;99.90;;;;;;5085520;27;20391;-75
2022/11/11 06:39:13;;;;;;;36.53;15.27;;;10.10;99.90;;;;;;5117589;27;20047;-73
2022/11/11 06:41:39;;;;;;;37.60;14.45;;;10.10;99.90;;;;;;5117870;27;20145;-73
2022/11/11 06:44:05;;;;;;;38.95;15.40;;;10.10;99.90;;;;;;5118104;27;20050;-77
2022/11/11 06:46:31;;;;;;;35.42;14.57;;;10.20;99.90;;;;;;5135518;27;20493;-78
2022/11/11 06:48:57;;;;;;;34.50;14.43;;;10.20;99.90;;;;;;5117471;27;20035;-74
2022/11/11 06:51:22;;;;;;;38.95;15.48;;;10.20;99.90;;;;;;5135551;27;20043;-74
2022/11/11 06:53:48;;;;;;;33.33;14.07;;;10.20;99.90;;;;;;5117069;27;20043;-73
2022/11/11 06:56:14;;;;;;;32.00;13.73;;;10.20;99.90;;;;;;5135240;27;20442;-73
2022/11/11 06:58:40;;;;;;;33.75;14.15;;;10.20;99.90;;;;;;5117435;27;20100;-74
2022/11/11 07:01:08;;;;;;;32.80;14.80;;;10.20;99.90;;;;;;5134647;27;20475;-73
2022/11/11 07:03:34;;;;;;;34.83;14.45;;;10.30;99.90;;;;;;5116819;27;20160;-74
2022/11/11 07:06:01;;;;;;;32.15;14.68;;;10.30;99.90;;;;;;5135295;27;20051;-73
2022/11/11 07:08:27;;;;;;;35.25;15.00;;;10.20;99.90;;;;;;5135254;27;20073;-75
2022/11/11 07:10:53;;;;;;;32.60;13.83;;;10.30;99.90;;;;;;5134946;27;20462;-74
2022/11/11 07:13:19;;;;;;;28.30;13.25;;;10.30;99.90;;;;;;5116905;27;20047;-74
2022/11/11 07:15:45;;;;;;;30.48;14.45;;;10.30;99.90;;;;;;5116253;27;20059;-73
2022/11/11 07:18:11;;;;;;;32.88;13.38;;;10.30;99.90;;;;;;5116376;27;20506;-72
2022/11/11 07:20:37;;;;;;;33.55;13.73;;;10.30;99.90;;;;;;5134693;27;20043;-74
2022/11/11 07:23:04;;;;;;;30.33;13.00;;;10.40;99.90;;;;;;5134866;27;20039;-74
2022/11/11 07:25:30;;;;;;;32.53;13.07;;;10.40;99.90;;;;;;5116638;27;20055;-74
2022/11/11 07:27:56;;;;;;;31.92;13.05;;;10.40;99.90;;;;;;5116611;27;20387;-74
2022/11/11 07:30:22;;;;;;;30.17;13.55;;;10.40;99.90;;;;;;5116692;27;20047;-74
2022/11/11 07:32:49;;;;;;;30.20;13.30;;;10.40;99.90;;;;;;5116749;27;20070;-75
2022/11/11 07:35:16;;;;;;;31.42;13.27;;;10.50;99.90;;;;;;5134496;27;20391;-75
2022/11/11 07:37:43;;;;;;;28.75;13.10;;;10.50;99.90;;;;;;5116934;27;20456;-75
2022/11/11 07:40:11;;;;;;;25.80;11.57;;;10.50;99.90;;;;;;5134540;27;20046;-74
2022/11/11 07:42:38;;;;;;;28.88;13.38;;;10.50;99.90;;;;;;5098995;27;20051;-75
2022/11/11 07:45:05;;;;;;;28.83;13.07;;;10.50;99.90;;;;;;5116055;27;20046;-74
2022/11/11 07:47:31;;;;;;;31.08;12.25;;;10.50;99.90;;;;;;5115845;27;20092;-76
2022/11/11 07:49:56;;;;;;;31.92;12.48;;;10.50;99.90;;;;;;5099099;27;20043;-73
2022/11/11 07:52:22;;;;;;;28.85;12.35;;;10.60;99.90;;;;;;5099431;27;20047;-73
2022/11/11 07:54:49;;;;;;;33.20;12.80;;;10.60;99.90;;;;;;5134144;27;20547;-74
2022/11/11 07:57:15;;;;;;;28.80;12.32;;;10.60;99.90;;;;;;5116229;27;20035;-74
2022/11/11 07:59:41;;;;;;;28.60;12.68;;;10.60;99.90;;;;;;5134046;27;20104;-74
2022/11/11 08:02:11;;;;;;;32.38;13.50;;;10.60;99.90;;;;;;5115784;27;20051;-74
2022/11/11 08:04:36;;;;;;;26.60;12.75;;;10.60;99.90;;;;;;5134153;27;20049;-76
2022/11/11 08:07:02;;;;;;;33.83;13.07;;;10.60;99.90;;;;;;5134093;27;20519;-74
2022/11/11 08:09:28;;;;;;;32.33;12.02;;;10.60;99.90;;;;;;5133806;27;20049;-78
2022/11/11 08:14:38;;;;;;;28.75;11.32;;;10.70;99.90;;;;;;5101165;27;20089;-74
2022/11/11 08:17:04;;;;;;;31.83;11.20;;;10.70;99.90;;;;;;5115399;28;20043;-74
2022/11/11 08:19:29;;;;;;;28.00;11.98;;;10.70;99.90;;;;;;5115367;28;20053;-74
2022/11/11 08:21:55;;;;;;;30.85;12.05;;;10.70;99.90;;;;;;5133777;27;20074;-73
2022/11/11 08:24:21;;;;;;;27.05;11.85;;;10.70;99.90;;;;;;5116009;27;20463;-74
2022/11/11 08:26:48;;;;;;;28.85;12.48;;;10.80;99.90;;;;;;5098665;27;20104;-74
2022/11/11 08:29:13;;;;;;;26.07;11.57;;;10.80;99.90;;;;;;5134511;27;20047;-73
2022/11/11 08:31:39;;;;;;;27.05;11.70;;;10.90;99.90;;;;;;5115343;28;20099;-75
2022/11/11 08:34:05;;;;;;;32.88;11.70;;;10.90;99.90;;;;;;5116110;28;20126;-73
2022/11/11 08:36:31;;;;;;;28.13;11.27;;;10.80;99.90;;;;;;5115251;28;20039;-77
2022/11/11 08:38:56;;;;;;;27.98;11.20;;;11.00;99.90;;;;;;5115539;28;20043;-75
2022/11/11 08:41:22;;;;;;;26.80;11.90;;;11.00;99.90;;;;;;5098791;28;20050;-74
2022/11/11 08:43:54;;;;;;;27.98;10.95;;;11.00;99.90;;;;;;5133666;28;20070;-74
2022/11/11 08:46:21;;;;;;;27.75;10.90;;;11.00;99.90;;;;;;5082031;28;20043;-76
2022/11/11 08:48:47;;;;;;;24.25;11.18;;;11.10;99.90;;;;;;5115635;28;20122;-75
2022/11/11 08:51:13;;;;;;;31.88;12.73;;;11.10;99.90;;;;;;5099039;28;20147;-75
2022/11/11 08:53:39;;;;;;;24.42;10.77;;;11.10;99.90;;;;;;5133458;28;20054;-75
2022/11/11 08:56:06;;;;;;;21.95;10.73;;;11.20;99.90;;;;;;5133516;28;20134;-75
2022/11/11 08:58:32;;;;;;;22.70;10.63;;;11.30;99.90;;;;;;5133677;28;20047;-73
2022/11/11 09:00:58;;;;;;;23.40;8.77;;;11.30;99.90;;;;;;5133534;28;20053;-72
2022/11/11 09:03:23;;;;;;;24.77;10.73;;;11.30;99.90;;;;;;5115036;28;20126;-75
2022/11/11 09:05:50;;;;;;;24.80;10.23;;;11.30;99.90;;;;;;5133263;28;20097;-77
2022/11/11 09:08:15;;;;;;;25.83;9.60;;;11.40;99.90;;;;;;5115402;28;20086;-74
2022/11/11 09:10:41;;;;;;;23.33;9.48;;;11.40;99.90;;;;;;5098520;28;20123;-75
2022/11/11 09:13:08;;;;;;;27.55;11.45;;;11.40;99.90;;;;;;5133409;28;20047;-73
2022/11/11 09:15:36;;;;;;;24.77;9.98;;;11.90;99.90;;;;;;5132929;28;20112;-74
2022/11/11 09:18:02;;;;;;;21.30;10.13;;;11.70;99.90;;;;;;5115135;28;20478;-74
2022/11/11 09:20:28;;;;;;;22.73;11.00;;;11.50;99.90;;;;;;5098249;28;20046;-73
2022/11/11 09:22:54;;;;;;;23.03;10.63;;;11.60;99.90;;;;;;5098211;27;20140;-75
2022/11/11 09:25:20;;;;;;;25.00;10.80;;;11.70;99.90;;;;;;5118878;27;20093;-74
2022/11/11 09:27:57;;;;;;;24.83;11.03;;;11.60;99.90;;;;;;5119331;27;20051;-74
2022/11/11 09:30:23;;;;;;;;;;;11.60;99.90;;;;;;5119678;27;20373;-75
2022/11/11 09:32:49;;;;;;;20.83;10.23;;;11.60;99.90;;;;;;5119000;27;20092;-74
2022/11/11 09:35:15;;;;;;;23.85;10.65;;;11.60;99.90;;;;;;5136801;27;20395;-73
2022/11/11 09:37:41;;;;;;;23.50;10.23;;;11.70;99.90;;;;;;5118879;27;20043;-75
2022/11/11 09:40:16;;;;;;;27.00;11.20;;;11.70;99.90;;;;;;5101455;27;20051;-74
2022/11/11 09:42:54;;;;;;;22.88;10.30;;;11.80;99.90;;;;;;5137502;27;20066;-75
2022/11/11 09:45:30;;;;;;;23.75;10.40;;;11.80;99.90;;;;;;5136849;27;20043;-75
2022/11/11 09:48:34;;;;;;;24.65;11.10;;;;;;;;;;5137194;27;20050;-76
2022/11/11 09:51:02;;;;;;;28.95;13.02;;;12.00;99.90;;;;;;5033001;28;20532;-75
2022/11/11 09:53:32;;;;;;;24.95;12.00;;;;;;;;;;5118438;27;20073;-75
2022/11/11 09:56:01;;;;;;;28.48;13.65;;;;;;;;;;5117970;27;20086;-76
2022/11/11 09:58:35;;;;;;;28.30;13.13;;;;;;;;;;5136539;27;20424;-76
2022/11/11 10:01:15;;;;;;;27.40;13.25;;;11.90;99.90;;;;;;5118244;27;20483;-74
2022/11/11 10:03:50;;;;;;;30.15;13.15;;;11.90;99.90;;;;;;5118868;27;20051;-74
2022/11/11 10:06:23;;;;;;;28.88;13.23;;;12.00;99.90;;;;;;5136244;27;20050;-75
2022/11/11 10:09:03;;;;;;;28.45;13.20;;;;;;;;;;5084710;27;20054;-76
2022/11/11 10:11:48;;;;;;;33.13;14.35;;;;;;;;;;5118422;27;20051;-74
2022/11/11 10:14:15;;;;;;;30.02;12.88;;;12.10;99.90;;;;;;5117991;27;20047;-75
2022/11/11 10:17:18;;;;;;;34.25;13.88;;;12.30;99.90;;;;;;5136392;27;20138;-82
2022/11/11 10:20:24;;;;;;;28.13;14.13;;;11.90;99.90;;;;;;5135648;27;20503;-75
2022/11/11 10:23:02;;;;;;;32.95;13.70;;;11.80;99.90;;;;;;5112492;27;20528;-75
2022/11/11 10:25:29;;;;;;;30.80;13.30;;;11.80;99.90;;;;;;5118247;27;20043;-76
2022/11/11 10:27:59;;;;;;;29.73;13.25;;;11.80;99.90;;;;;;5117754;27;20043;-74
2022/11/11 10:30:30;;;;;;;30.42;14.00;;;11.90;99.90;;;;;;5117645;27;20078;-77
2022/11/11 10:33:14;;;;;;;28.20;12.85;;;11.80;99.90;;;;;;5100862;27;20069;-73
2022/11/11 10:35:41;;;;;;;26.83;13.38;;;11.80;99.90;;;;;;5134748;27;20039;-74
2022/11/11 10:38:10;;;;;;;27.90;12.68;;;11.90;99.90;;;;;;5135819;27;20126;-75
2022/11/11 10:40:48;;;;;;;28.17;12.90;;;11.80;99.90;;;;;;5135832;27;20047;-75
2022/11/11 10:43:21;;;;;;;24.25;13.05;;;12.00;99.90;;;;;;5118368;27;20387;-76
2022/11/11 10:46:06;;;;;;;27.08;12.80;;;11.70;99.90;;;;;;5135392;27;20498;-76
2022/11/11 10:48:57;;;;;;;25.60;11.88;;;11.70;99.90;;;;;;5135998;27;20130;-75
2022/11/11 10:51:28;;;;;;;27.58;13.52;;;11.90;99.90;;;;;;5135348;27;20051;-74
2022/11/11 10:54:03;;;;;;;29.70;13.68;;;11.90;99.90;;;;;;5135379;27;20100;-75
2022/11/11 10:56:44;;;;;;;31.40;13.35;;;12.00;99.90;;;;;;5117303;27;20559;-74
2022/11/11 10:59:21;;;;;;;26.05;12.15;;;12.00;99.90;;;;;;5136333;27;20066;-75
2022/11/11 11:01:56;;;;;;;27.52;12.55;;;11.80;99.90;;;;;;5136154;27;20086;-76
2022/11/11 11:04:28;;;;;;;29.45;13.63;;;11.80;99.90;;;;;;5117359;27;20042;-75
2022/11/11 11:06:56;;;;;;;25.13;9.48;;;11.90;99.90;;;;;;5116926;27;20047;-74
2022/11/11 11:09:37;;;;;;;26.60;13.18;;;12.10;99.90;;;;;;5135077;27;20051;-73
2022/11/11 11:12:14;;;;;;;24.10;11.70;;;11.80;99.90;;;;;;5136019;27;20039;-73
2022/11/11 11:14:42;;;;;;;;;;;12.00;99.90;;;;;;5117508;27;20082;-75
2022/11/11 11:17:16;;;;;;;23.83;10.82;;;12.00;99.90;;;;;;5135071;27;20393;-76
2022/11/11 11:19:41;;;;;;;22.70;11.05;;;12.10;99.90;;;;;;5099741;27;20079;-74
2022/11/11 11:22:07;;;;;;;21.70;10.38;;;12.10;99.90;;;;;;5134989;27;20089;-74
2022/11/11 11:24:36;;;;;;;25.65;10.88;;;12.20;99.90;;;;;;5134873;27;20122;-74
2022/11/11 11:27:06;;;;;;;21.25;9.80;;;12.30;99.90;;;;;;5117342;27;20352;-75
2022/11/11 11:29:41;;;;;;;21.67;10.45;;;12.40;99.90;;;;;;5117375;27;20065;-75
2022/11/11 11:32:11;;;;;;;18.90;9.45;;;12.30;99.90;;;;;;5116826;27;20046;-75
2022/11/11 11:34:50;;;;;;;19.80;9.45;;;12.30;99.90;;;;;;5134536;27;20158;-73
2022/11/11 11:37:18;;;;;;;22.40;10.85;;;12.30;99.90;;;;;;5134729;27;20382;-73
2022/11/11 11:39:45;;;;;;;20.38;10.13;;;12.40;99.90;;;;;;5134503;27;20065;-72
2022/11/11 11:42:28;;;;;;;21.30;10.05;;;12.20;99.90;;;;;;5116615;27;20043;-72
2022/11/11 11:44:55;;;;;;;21.42;10.23;;;;;;;;;;5115846;27;20167;-74
2022/11/11 11:47:22;;;;;;;;;;;;;;;;;;5134528;27;20049;-74
2022/11/11 11:50:02;;;;;;;20.30;8.63;;;;;;;;;;5116453;27;19919;-74
2022/11/11 11:52:44;;;;;;;19.10;9.18;;;;;;;;;;5116137;27;20131;-74
2022/11/11 11:55:18;;;;;;;18.20;8.48;;;;;;;;;;5134715;27;20111;-74
2022/11/11 11:57:56;;;;;;;19.05;8.65;;;;;;;;;;5115371;27;20047;-73
2022/11/11 12:00:24;;;;;;;18.27;8.48;;;;;;;;;;5098988;27;20504;-75
2022/11/11 12:03:15;;;;;;;20.75;7.82;;;12.60;99.90;;;;;;5134004;27;20049;-74
2022/11/11 12:05:59;;;;;;;18.90;8.50;;;12.60;99.90;;;;;;5115738;27;20054;-74
2022/11/11 12:08:37;;;;;;;18.88;8.77;;;12.60;99.90;;;;;;5117942;27;20047;-73
2022/11/11 12:11:15;;;;;;;16.88;8.43;;;12.50;99.90;;;;;;5116311;27;20046;-75
2022/11/11 12:14:01;;;;;;;19.92;9.50;;;12.60;99.90;;;;;;5133931;27;20043;-74
2022/11/11 12:16:56;;;;;;;20.38;9.90;;;12.70;99.90;;;;;;5134745;27;20363;-74
2022/11/11 12:19:22;;;;;;;19.15;9.23;;;12.40;99.90;;;;;;5098823;28;20451;-73
2022/11/11 12:22:15;;;;;;;18.75;9.00;;;12.40;99.90;;;;;;5115408;28;20095;-75
2022/11/11 12:24:48;;;;;;;18.95;7.97;;;12.30;99.90;;;;;;5133792;27;20046;-72
2022/11/11 12:27:45;;;;;;;22.48;9.02;;;12.50;99.90;;;;;;5134079;27;20471;-73
2022/11/11 12:30:13;;;;;;;;;;;12.40;99.90;;;;;;5093451;27;20070;-73
2022/11/11 12:32:49;;;;;;;16.48;8.13;;;12.80;99.90;;;;;;5098097;28;19919;-75
2022/11/11 12:35:42;;;;;;;15.57;8.33;;;12.50;99.90;;;;;;5115801;28;20043;-76
2022/11/11 12:38:33;;;;;;;17.48;8.43;;;12.60;99.90;;;;;;5115120;28;20054;-73
2022/11/11 12:41:11;;;;;;;17.13;8.45;;;12.60;99.90;;;;;;5134190;28;20386;-73
2022/11/11 12:43:50;;;;;;;18.52;8.88;;;12.60;99.90;;;;;;5133789;28;20047;-72
2022/11/11 12:46:22;;;;;;;19.30;9.18;;;12.60;99.90;;;;;;5133666;28;20043;-73
2022/11/11 12:48:55;;;;;;;21.00;8.60;;;12.60;99.90;;;;;;5115821;28;20074;-74
2022/11/11 12:51:27;;;;;;;16.95;8.07;;;12.60;99.90;;;;;;5115805;28;20123;-74
2022/11/11 12:54:04;;;;;;;16.35;7.88;;;12.50;99.90;;;;;;5115617;28;20148;-75
2022/11/11 12:56:52;;;;;;;20.65;9.02;;;12.60;99.90;;;;;;5115302;28;20134;-73
2022/11/11 12:59:38;;;;;;;20.23;8.98;;;12.70;99.90;;;;;;5136135;27;20050;-73
2022/11/11 13:02:20;;;;;;;16.83;8.45;;;12.70;99.90;;;;;;5085204;27;20141;-74
2022/11/11 13:04:46;;;;;;;19.05;8.73;;;12.70;99.90;;;;;;5119774;27;20043;-72
2022/11/11 13:07:53;;;;;;;19.98;8.10;;;12.70;99.90;;;;;;5137450;27;20495;-72
2022/11/11 13:10:31;;;;;;;17.27;8.18;;;12.70;99.90;;;;;;5137059;27;20210;-75
2022/11/11 13:13:32;;;;;;;17.02;7.63;;;12.70;99.90;;;;;;5119509;27;20039;-74
2022/11/11 13:15:59;;;;;;;19.90;7.93;;;12.80;99.90;;;;;;5137430;27;20047;-75
2022/11/11 13:18:38;;;;;;;13.43;7.00;;;12.60;99.90;;;;;;5119819;27;20055;-76
2022/11/11 13:21:12;;;;;;;19.25;7.85;;;12.80;99.90;;;;;;5118912;27;20297;-75
2022/11/11 13:23:37;;;;;;;17.23;7.53;;;12.80;99.90;;;;;;5119320;27;20054;-76
2022/11/11 13:26:15;;;;;;;17.15;7.75;;;12.80;99.90;;;;;;5118510;27;20051;-74
2022/11/11 13:28:46;;;;;;;19.45;7.85;;;12.90;99.90;;;;;;5118927;27;20047;-75
2022/11/11 13:31:37;;;;;;;17.02;6.95;;;12.80;99.90;;;;;;5119591;27;20036;-73
2022/11/11 13:34:11;;;;;;;15.10;6.43;;;12.80;99.90;;;;;;5137086;27;20458;-76
2022/11/11 13:36:50;;;;;;;16.42;6.57;;;12.90;99.90;;;;;;5102454;27;20047;-73
2022/11/11 13:39:25;;;;;;;19.00;7.25;;;13.00;99.90;;;;;;5137568;27;20423;-76
2022/11/11 13:41:54;;;;;;;16.88;7.13;;;13.00;99.90;;;;;;5119498;27;20050;-76
2022/11/11 13:44:24;;;;;;;15.65;6.45;;;13.00;99.90;;;;;;5136902;27;20043;-74
2022/11/11 13:46:50;;;;;;;16.08;7.18;;;13.00;99.90;;;;;;5137230;27;20059;-74
2022/11/11 13:49:25;;;;;;;17.95;6.53;;;12.90;99.90;;;;;;5136667;27;20136;-77
2022/11/11 13:52:17;;;;;;;17.65;7.00;;;13.00;99.90;;;;;;5119199;27;20126;-75
2022/11/11 13:54:52;;;;;;;17.00;7.60;;;12.90;99.90;;;;;;5136602;27;20043;-74
2022/11/11 13:57:22;;;;;;;17.35;7.68;;;12.90;99.90;;;;;;5118224;27;20118;-74
2022/11/11 14:00:06;;;;;;;14.27;7.03;;;13.00;99.90;;;;;;5101589;27;20059;-74
2022/11/11 14:02:33;;;;;;;15.00;6.85;;;12.90;99.90;;;;;;5136385;27;20043;-74
2022/11/11 14:05:05;;;;;;;18.40;7.13;;;12.80;99.90;;;;;;5117647;27;20529;-74
2022/11/11 14:07:42;;;;;;;17.95;6.50;;;12.90;99.90;;;;;;5136298;27;20050;-75
2022/11/11 14:10:17;;;;;;;19.85;6.72;;;12.80;99.90;;;;;;5117997;27;20043;-76
2022/11/11 14:12:53;;;;;;;16.15;6.95;;;12.80;99.90;;;;;;5136413;27;20059;-74